Terminal Aerodrome Forecast
Issued by NWS Memphis, TN

Home | Current Version | Previous Version | Text Only | Print | Product List | Glossary On
Versions: 1 2 3 4 5 6 7 8 9 10 11 12 13 14 15 16 17 18 19 20 21 22 23 24 25 26 27 28 29 30 31 32 33 34
000
FTUS44 KMEG 300356 AAC
TAFMEM
TAF AMD
KMEM 300356Z 3004/3024 06013G25KT 4SM TS FEW045CB BKN090 BKN180
     FM300500 23006KT P6SM SCT060
     FM300600 28004KT P6SM FEW060
     FM301400 28008KT P6SM SCT060=

USA.gov is the U.S. government's official web portal to all federal, state and local government web resources and services.